Time;durP1;ratioP1;P1;durP2;ratioP2;P2;SDS_P1;SDS_P2;PMS_P1;PMS_P2;Temp;Humidity;BMP_temperature;BMP_pressure;BME280_temperature;BME280_humidity;BME280_pressure;Samples;Min_cycle;Max_cycle;Signal;HPM_P1;HPM_P2
2020/12/25 00:00:43;;;;;;;8.78;6.22;;;;;;;6.36;87.16;99574.30;2807348;84;21166;-63
2020/12/25 00:04:48;;;;;;;7.28;4.67;;;;;;;6.32;87.33;99585.20;2802833;83;21172;-64
2020/12/25 00:08:55;;;;;;;6.70;4.37;;;;;;;6.35;87.54;99581.86;2779982;84;21742;-64
2020/12/25 00:12:59;;;;;;;6.03;4.30;;;;;;;6.38;87.54;99593.52;2729318;86;21190;-62
2020/12/25 00:17:06;;;;;;;8.90;6.42;;;;;;;6.39;87.58;99607.09;2752827;86;21187;-64
2020/12/25 00:21:12;;;;;;;7.35;6.03;;;;;;;6.41;87.45;99613.59;2806009;84;21655;-62
2020/12/25 00:25:18;;;;;;;7.97;4.72;;;;;;;6.43;87.54;99611.17;2785293;84;22230;-63
2020/12/25 00:29:24;;;;;;;8.60;5.47;;;;;;;6.42;87.42;99610.81;2815267;84;21134;-62
2020/12/25 00:33:27;;;;;;;5.95;4.90;;;;;;;6.41;87.56;99613.59;2771657;84;21200;-62
2020/12/25 00:37:34;;;;;;;5.83;3.52;;;;;;;6.43;87.68;99616.45;2811754;84;21170;-65
2020/12/25 00:41:43;;;;;;;6.55;3.77;;;;;;;6.43;87.67;99629.67;2749697;86;21137;-63
2020/12/25 00:45:47;;;;;;;4.00;2.77;;;;;;;6.46;87.72;99629.07;2728980;86;21185;-64
2020/12/25 00:49:51;;;;;;;5.28;3.33;;;;;;;6.47;87.48;99630.75;2730560;85;21199;-62
2020/12/25 00:53:55;;;;;;;5.92;3.83;;;;;;;6.46;87.49;99643.60;2738599;86;21195;-65
2020/12/25 00:57:59;;;;;;;4.15;3.50;;;;;;;6.45;87.46;99643.23;2791720;84;21328;-62
2020/12/25 01:02:04;;;;;;;8.75;6.25;;;;;;;6.43;87.48;99644.20;2802593;84;21166;-63
2020/12/25 01:06:16;;;;;;;4.97;4.22;;;;;;;6.48;87.71;99646.97;2897019;81;21803;-64
2020/12/25 01:10:19;;;;;;;5.92;4.40;;;;;;;6.52;87.48;99660.34;2909064;81;21137;-62
2020/12/25 01:14:23;;;;;;;6.87;5.58;;;;;;;6.43;87.40;99664.51;2901737;81;21152;-63
2020/12/25 01:18:27;;;;;;;12.98;5.12;;;;;;;6.47;87.52;99663.31;2900742;82;21137;-64
2020/12/25 01:22:31;;;;;;;6.35;4.75;;;;;;;6.51;87.48;99671.87;2900791;82;21148;-62
2020/12/25 01:26:34;;;;;;;14.93;5.50;;;;;;;6.54;87.12;99672.95;2932022;80;21141;-64
2020/12/25 01:30:38;;;;;;;9.13;4.90;;;;;;;6.54;86.87;99679.56;2931483;80;21149;-63
2020/12/25 01:34:43;;;;;;;6.37;4.95;;;;;;;6.53;86.83;99686.63;2964273;80;21147;-62
2020/12/25 01:38:47;;;;;;;8.48;4.62;;;;;;;6.56;87.05;99681.61;2956163;80;21171;-63
2020/12/25 01:42:51;;;;;;;4.80;3.92;;;;;;;6.61;86.91;99684.73;2962555;80;21169;-63
2020/12/25 01:46:55;;;;;;;6.33;4.00;;;;;;;6.62;86.91;99693.03;2936159;80;21143;-63
2020/12/25 01:51:00;;;;;;;7.40;5.45;;;;;;;6.59;86.87;99695.08;2935208;80;21163;-63
2020/12/25 01:55:07;;;;;;;6.27;4.00;;;;;;;6.56;86.94;99694.81;2935422;80;21315;-64
2020/12/25 01:59:11;;;;;;;8.10;5.42;;;;;;;6.55;87.08;99699.25;2948615;80;21114;-63
2020/12/25 02:03:15;;;;;;;4.50;3.05;;;;;;;6.50;87.14;99699.25;2973692;79;21143;-64
2020/12/25 02:07:19;;;;;;;4.22;2.98;;;;;;;6.46;87.31;99705.69;2960530;79;21100;-64
2020/12/25 02:11:23;;;;;;;4.03;1.65;;;;;;;6.43;87.16;99712.89;2973723;79;21156;-63
2020/12/25 02:15:28;;;;;;;3.42;2.67;;;;;;;6.36;87.09;99716.95;2949593;80;21132;-63
2020/12/25 02:19:31;;;;;;;2.80;2.20;;;;;;;6.32;87.02;99718.60;2961602;80;21114;-62
2020/12/25 02:23:35;;;;;;;2.58;1.90;;;;;;;6.28;86.94;99725.90;2910030;81;21136;-64
2020/12/25 02:27:39;;;;;;;5.08;2.55;;;;;;;6.23;86.87;99727.58;2925075;80;21628;-63
2020/12/25 02:31:44;;;;;;;1.98;1.60;;;;;;;6.23;86.74;99732.00;2925093;81;21118;-62
2020/12/25 02:35:48;;;;;;;2.85;2.58;;;;;;;6.16;86.66;99732.92;2925150;80;21191;-63
2020/12/25 02:39:52;;;;;;;4.20;2.35;;;;;;;6.16;86.61;99734.23;2960482;80;21164;-66
2020/12/25 02:43:56;;;;;;;2.17;1.75;;;;;;;6.20;86.71;99735.73;2966746;80;21136;-63
2020/12/25 02:48:01;;;;;;;4.45;1.95;;;;;;;6.21;86.26;99736.55;2973932;80;21073;-64
2020/12/25 02:52:04;;;;;;;3.22;1.70;;;;;;;6.13;85.79;99745.89;2941528;79;21649;-64
2020/12/25 02:56:07;;;;;;;2.85;1.55;;;;;;;6.11;86.00;99744.30;2925205;80;21166;-64
2020/12/25 03:00:10;;;;;;;2.35;1.35;;;;;;;6.11;86.00;99734.59;2924941;80;21142;-63
2020/12/25 03:04:15;;;;;;;7.03;1.98;;;;;;;6.12;85.97;99740.70;2924762;81;21163;-63
2020/12/25 03:08:18;;;;;;;2.00;1.90;;;;;;;6.08;85.97;99751.95;2950645;80;21128;-64
2020/12/25 03:12:21;;;;;;;6.03;3.70;;;;;;;6.07;86.11;99752.08;2924236;81;21634;-64
2020/12/25 03:16:24;;;;;;;3.90;2.75;;;;;;;6.05;86.07;99750.03;2950752;80;21141;-62
2020/12/25 03:20:29;;;;;;;3.85;2.98;;;;;;;6.00;86.15;99758.23;2924056;80;21147;-63
2020/12/25 03:24:32;;;;;;;11.33;7.97;;;;;;;5.96;86.31;99764.70;2950680;80;21153;-64
2020/12/25 03:28:35;;;;;;;12.13;5.72;;;;;;;5.98;86.60;99767.58;2924375;81;21151;-63
2020/12/25 03:32:38;;;;;;;7.00;5.10;;;;;;;6.04;86.60;99765.02;2950232;80;21157;-65
2020/12/25 03:36:43;;;;;;;5.50;4.08;;;;;;;6.10;86.58;99767.23;2924239;80;21115;-63
2020/12/25 03:40:47;;;;;;;5.03;4.20;;;;;;;6.13;86.50;99770.97;2924403;81;21112;-64
2020/12/25 03:44:54;;;;;;;8.98;4.90;;;;;;;6.07;86.18;99770.56;2950101;80;21145;-62
2020/12/25 03:48:55;;;;;;;7.42;3.05;;;;;;;6.03;86.09;99773.89;2871092;82;21585;-62
2020/12/25 03:53:00;;;;;;;4.92;2.47;;;;;;;6.04;86.37;99772.94;2950510;80;21519;-62
2020/12/25 03:57:19;;;;;;;2.95;1.62;;;;;;;6.10;86.49;99782.22;2825281;82;21126;-63
2020/12/25 04:01:22;;;;;;;2.72;2.52;;;;;;;6.12;86.49;99786.45;2825709;83;21198;-63
2020/12/25 04:05:27;;;;;;;3.17;2.70;;;;;;;6.14;86.35;99781.05;2825767;83;21174;-62
2020/12/25 04:09:30;;;;;;;7.45;2.50;;;;;;;6.14;85.92;99784.55;2825501;83;21170;-63
2020/12/25 04:13:34;;;;;;;2.95;2.02;;;;;;;6.12;85.77;99784.27;2825692;84;21166;-63
2020/12/25 04:17:37;;;;;;;7.03;2.75;;;;;;;6.09;85.83;99781.39;2825655;83;21170;-61
2020/12/25 04:21:41;;;;;;;6.67;3.55;;;;;;;6.08;85.83;99782.32;2825577;84;21178;-62
2020/12/25 04:25:44;;;;;;;2.70;2.50;;;;;;;6.07;85.67;99791.69;2825760;83;21150;-62
2020/12/25 04:29:48;;;;;;;4.70;2.83;;;;;;;6.04;85.64;99790.59;2824247;82;21203;-62
2020/12/25 04:33:51;;;;;;;4.00;2.52;;;;;;;6.01;85.63;99794.28;2840093;82;21156;-61
2020/12/25 04:37:56;;;;;;;2.37;1.60;;;;;;;6.00;85.92;99794.74;2872152;82;21091;-62
2020/12/25 04:41:59;;;;;;;2.10;1.62;;;;;;;6.03;85.44;99796.33;2874422;82;21098;-62
2020/12/25 04:46:03;;;;;;;3.00;2.70;;;;;;;6.00;85.61;99800.48;2873375;82;21105;-61
2020/12/25 04:50:07;;;;;;;2.80;2.02;;;;;;;5.99;85.44;99806.72;2871766;82;21169;-62
2020/12/25 04:54:11;;;;;;;3.80;2.47;;;;;;;5.95;85.68;99801.30;2871546;82;21196;-62
2020/12/25 04:58:15;;;;;;;3.02;2.20;;;;;;;5.90;85.86;99803.42;2871580;82;21097;-62
2020/12/25 05:02:20;;;;;;;4.62;2.60;;;;;;;5.90;86.20;99813.98;2871631;82;21201;-62
2020/12/25 05:06:24;;;;;;;3.20;2.90;;;;;;;5.95;86.36;99816.64;2871673;82;21137;-61
2020/12/25 05:10:30;;;;;;;3.65;2.85;;;;;;;5.98;86.35;99817.74;2871638;82;21172;-62
2020/12/25 05:14:33;;;;;;;3.37;2.27;;;;;;;5.99;86.28;99823.88;2876022;82;21635;-62
2020/12/25 05:18:41;;;;;;;7.62;6.40;;;;;;;5.97;86.37;99820.02;2876357;82;21161;-63
2020/12/25 05:22:44;;;;;;;7.30;5.90;;;;;;;5.98;86.55;99828.80;2876072;82;21164;-63
2020/12/25 05:26:56;;;;;;;5.78;3.25;;;;;;;5.95;86.49;99827.20;2876257;82;21156;-62
2020/12/25 05:31:01;;;;;;;12.90;3.17;;;;;;;6.02;86.72;99829.47;2822688;84;21168;-63
2020/12/25 05:35:04;;;;;;;3.90;2.87;;;;;;;6.03;86.20;99835.11;2822491;84;21181;-63
2020/12/25 05:39:07;;;;;;;2.67;2.17;;;;;;;6.00;86.25;99838.77;2822696;84;21213;-62
2020/12/25 05:43:15;;;;;;;3.52;2.37;;;;;;;5.95;86.48;99836.94;2822594;84;21157;-62
2020/12/25 05:47:18;;;;;;;3.52;3.22;;;;;;;5.91;86.52;99840.25;2823498;84;21157;-64
2020/12/25 05:51:22;;;;;;;4.10;2.52;;;;;;;5.91;86.83;99848.67;2823087;84;21954;-61
2020/12/25 05:55:26;;;;;;;4.17;2.33;;;;;;;5.89;86.58;99848.76;2822669;84;21142;-61
2020/12/25 05:59:31;;;;;;;5.03;2.40;;;;;;;5.85;86.68;99848.12;2822682;84;21182;-62
2020/12/25 06:03:37;;;;;;;3.45;3.00;;;;;;;5.88;86.74;99855.45;2823908;84;21181;-61
2020/12/25 06:07:50;;;;;;;4.05;3.45;;;;;;;5.87;86.62;99866.50;2824017;84;21234;-62
2020/12/25 06:11:54;;;;;;;4.95;3.17;;;;;;;5.88;86.73;99864.69;2822746;84;21183;-62
2020/12/25 06:15:57;;;;;;;5.17;3.10;;;;;;;5.88;86.66;99870.83;2822713;84;21186;-61
2020/12/25 06:20:04;;;;;;;7.40;4.28;;;;;;;5.88;86.58;99881.39;2822686;84;21166;-63
2020/12/25 06:24:13;;;;;;;9.98;5.75;;;;;;;5.84;86.66;99888.66;2824685;84;21182;-62
2020/12/25 06:28:20;;;;;;;11.73;5.35;;;;;;;5.85;86.64;99890.35;2825515;84;21178;-61
2020/12/25 06:32:24;;;;;;;5.35;3.80;;;;;;;5.89;86.51;99902.87;2773042;85;21161;-61
2020/12/25 06:36:29;;;;;;;7.65;4.17;;;;;;;5.82;86.47;99903.77;2773304;84;21151;-63
2020/12/25 06:40:32;;;;;;;4.12;3.10;;;;;;;5.82;86.59;99917.45;2773187;85;21142;-63
2020/12/25 06:44:57;;;;;;;4.05;3.67;;;;;;;5.83;86.68;99919.14;2772878;85;21173;-61
2020/12/25 06:49:04;;;;;;;4.60;3.33;;;;;;;5.83;86.96;99912.55;2929865;81;21108;-62
2020/12/25 06:53:08;;;;;;;8.38;3.50;;;;;;;5.86;87.04;99920.25;2929876;81;21119;-62
2020/12/25 06:57:13;;;;;;;5.08;4.35;;;;;;;5.92;86.89;99929.55;2930395;81;21087;-62
2020/12/25 07:01:37;;;;;;;5.28;4.17;;;;;;;5.92;86.77;99930.88;2906418;81;21127;-61
2020/12/25 07:05:49;;;;;;;6.78;3.62;;;;;;;5.92;87.03;99948.86;2930300;81;21104;-63
2020/12/25 07:09:52;;;;;;;3.92;3.52;;;;;;;5.96;87.02;99948.19;2929966;81;21605;-62
2020/12/25 07:13:55;;;;;;;5.70;3.95;;;;;;;6.00;87.16;99951.84;2930149;81;21092;-62
2020/12/25 07:17:58;;;;;;;8.55;6.67;;;;;;;6.03;86.96;99953.44;2930404;81;21151;-61
2020/12/25 07:22:04;;;;;;;9.95;5.90;;;;;;;6.04;86.81;99971.47;2929859;81;22202;-62
2020/12/25 07:26:07;;;;;;;6.25;4.30;;;;;;;6.00;86.79;99974.75;2924412;81;21108;-63
2020/12/25 07:30:12;;;;;;;5.67;5.12;;;;;;;6.00;86.90;99976.92;2880094;81;21130;-63
2020/12/25 07:34:21;;;;;;;13.43;8.53;;;;;;;6.03;86.86;99980.34;2923845;80;21101;-62
2020/12/25 07:38:25;;;;;;;7.55;6.70;;;;;;;6.01;87.01;99992.31;2937649;80;21156;-62
2020/12/25 07:42:29;;;;;;;5.87;4.47;;;;;;;6.04;87.30;99999.19;2942622;80;21535;-62
2020/12/25 07:46:33;;;;;;;19.15;11.40;;;;;;;6.09;87.25;100001.04;2892229;81;21164;-62
2020/12/25 07:50:43;;;;;;;8.78;6.67;;;;;;;6.16;87.25;100008.08;2921465;81;21137;-63
2020/12/25 07:54:46;;;;;;;7.37;5.40;;;;;;;6.17;86.68;100009.77;2921520;81;21585;-61
2020/12/25 07:58:52;;;;;;;5.42;3.33;;;;;;;6.13;86.56;100020.55;2921474;81;21161;-61
2020/12/25 08:02:55;;;;;;;11.03;6.12;;;;;;;6.21;86.29;100022.67;2921742;80;21149;-63
2020/12/25 08:06:58;;;;;;;7.95;4.42;;;;;;;6.02;86.84;100017.77;2921594;81;21141;-62
2020/12/25 08:11:02;;;;;;;3.80;3.17;;;;;;;6.04;87.30;100018.50;2921621;80;21145;-62
2020/12/25 08:15:06;;;;;;;5.95;2.75;;;;;;;6.04;87.09;100020.31;2921231;81;21103;-62
2020/12/25 08:19:10;;;;;;;7.37;5.53;;;;;;;6.08;87.47;100033.19;2921822;80;21113;-62
2020/12/25 08:23:15;;;;;;;7.45;4.45;;;;;;;6.09;87.27;100028.77;2921554;80;21162;-61
2020/12/25 08:27:19;;;;;;;7.20;4.30;;;;;;;6.11;87.17;100032.15;2921424;80;21618;-63
2020/12/25 08:31:22;;;;;;;4.30;2.98;;;;;;;6.20;87.37;100028.04;2934502;80;21121;-64
2020/12/25 08:35:28;;;;;;;3.80;3.20;;;;;;;6.26;87.11;100048.75;2941282;80;21183;-62
2020/12/25 08:39:32;;;;;;;4.12;3.55;;;;;;;6.29;86.75;100045.92;2973759;79;21133;-62
2020/12/25 08:43:35;;;;;;;5.00;3.45;;;;;;;6.38;86.68;100053.20;2973513;79;21133;-62
2020/12/25 08:47:40;;;;;;;5.45;3.95;;;;;;;6.52;86.47;100065.97;2977419;78;21156;-64
2020/12/25 08:51:43;;;;;;;4.45;2.98;;;;;;;6.58;85.68;100080.07;2946797;79;21113;-64
2020/12/25 08:55:55;;;;;;;7.17;3.77;;;;;;;6.56;85.23;100085.45;2921294;80;21144;-63
2020/12/25 09:00:08;;;;;;;2.90;2.70;;;;;;;6.62;85.38;100091.28;2920888;81;23319;-62
2020/12/25 09:04:18;;;;;;;6.65;4.12;;;;;;;6.64;84.73;100092.86;2948808;78;21637;-63
2020/12/25 09:08:22;;;;;;;4.65;3.15;;;;;;;6.68;85.18;100094.82;2954582;80;21152;-63
2020/12/25 09:12:27;;;;;;;6.37;3.87;;;;;;;6.59;83.57;100097.61;2976548;78;21128;-62
2020/12/25 09:16:32;;;;;;;3.90;3.60;;;;;;;6.52;83.72;100105.11;2933824;79;21145;-60
2020/12/25 09:20:36;;;;;;;3.52;3.05;;;;;;;6.58;82.32;100109.14;2926432;80;21136;-65
2020/12/25 09:24:39;;;;;;;3.65;2.90;;;;;;;6.60;82.99;100112.52;2946382;80;21125;-63
2020/12/25 09:28:42;;;;;;;3.90;3.02;;;;;;;6.53;82.42;100120.51;2921251;81;21136;-64
2020/12/25 09:32:46;;;;;;;5.33;3.20;;;;;;;6.45;82.14;100121.48;2931168;80;21599;-65
2020/12/25 09:36:50;;;;;;;3.25;2.95;;;;;;;6.43;82.76;100123.75;2946900;80;21144;-63
2020/12/25 09:40:55;;;;;;;4.80;3.47;;;;;;;6.40;82.57;100120.49;2923946;80;21733;-64
2020/12/25 09:44:59;;;;;;;5.65;3.45;;;;;;;6.35;81.83;100120.80;2937983;80;21161;-64
2020/12/25 09:49:02;;;;;;;3.42;2.95;;;;;;;6.37;82.20;100119.34;2941667;80;21165;-64
2020/12/25 09:53:09;;;;;;;4.85;3.30;;;;;;;6.40;82.44;100119.17;2944898;80;21121;-63
2020/12/25 09:57:13;;;;;;;4.22;2.90;;;;;;;6.40;82.17;100120.00;2944236;79;21169;-65
2020/12/25 10:01:16;;;;;;;5.15;3.35;;;;;;;6.37;82.68;100125.50;2966611;80;21174;-64
2020/12/25 10:05:20;;;;;;;6.12;3.75;;;;;;;6.33;82.75;100131.94;2947157;80;21152;-65
2020/12/25 10:09:24;;;;;;;5.12;3.47;;;;;;;6.35;82.07;100135.78;2921758;81;21137;-65
2020/12/25 10:13:27;;;;;;;6.83;3.58;;;;;;;6.33;81.83;100138.55;2941038;78;21141;-63
2020/12/25 10:17:33;;;;;;;6.40;4.03;;;;;;;6.27;81.58;100137.16;2973780;79;21086;-64
2020/12/25 10:21:36;;;;;;;5.55;3.02;;;;;;;6.28;81.56;100134.02;2955136;80;21105;-65
2020/12/25 10:25:39;;;;;;;4.40;3.12;;;;;;;6.29;81.42;100135.74;2947331;80;21137;-67
2020/12/25 10:29:43;;;;;;;3.67;3.17;;;;;;;6.32;82.00;100140.81;2972928;80;22227;-63
2020/12/25 10:33:47;;;;;;;6.30;3.10;;;;;;;6.38;81.79;100143.04;2937346;79;21513;-64
2020/12/25 10:37:50;;;;;;;8.70;4.47;;;;;;;6.40;80.89;100137.17;2936336;80;21148;-64
2020/12/25 10:41:55;;;;;;;5.10;3.27;;;;;;;6.40;80.77;100142.46;2946408;79;21555;-64
2020/12/25 10:45:59;;;;;;;3.72;3.02;;;;;;;6.40;80.71;100150.88;2945747;80;21168;-62
2020/12/25 10:50:02;;;;;;;4.95;3.17;;;;;;;6.37;80.12;100159.84;2926825;80;21096;-63
2020/12/25 10:54:06;;;;;;;5.40;4.10;;;;;;;6.37;80.18;100161.63;2934170;80;21156;-62
2020/12/25 10:58:10;;;;;;;6.08;4.42;;;;;;;6.34;80.74;100167.98;2956020;80;21179;-64
2020/12/25 11:02:39;;;;;;;5.17;3.95;;;;;;;6.29;80.39;100164.31;2910862;81;21134;-62
2020/12/25 11:06:44;;;;;;;12.00;5.47;;;;;;;6.26;80.62;100168.48;2912323;81;21150;-62
2020/12/25 11:10:49;;;;;;;4.50;3.60;;;;;;;6.25;80.25;100165.92;2912870;81;21142;-62
2020/12/25 11:14:52;;;;;;;6.10;2.90;;;;;;;6.26;80.13;100170.26;2911279;81;21457;-63
2020/12/25 11:18:58;;;;;;;4.83;4.30;;;;;;;6.36;79.68;100174.00;2910653;81;21157;-61
2020/12/25 11:23:02;;;;;;;6.90;5.17;;;;;;;6.39;79.39;100169.00;2911631;81;21169;-62
2020/12/25 11:27:06;;;;;;;6.17;4.28;;;;;;;6.40;79.72;100175.48;2911478;81;21166;-62
2020/12/25 11:31:14;;;;;;;4.75;3.83;;;;;;;6.49;79.63;100163.95;2911031;81;21134;-62
2020/12/25 11:35:18;;;;;;;8.80;5.80;;;;;;;6.56;79.47;100173.16;2899864;81;21150;-62
2020/12/25 11:39:21;;;;;;;9.75;5.83;;;;;;;6.56;79.32;100178.44;2874410;81;21166;-64
2020/12/25 11:43:25;;;;;;;4.25;2.70;;;;;;;6.43;77.54;100181.89;2860536;83;21162;-63
2020/12/25 11:47:28;;;;;;;5.87;2.45;;;;;;;6.36;77.61;100190.31;2860445;83;21170;-65
2020/12/25 11:51:35;;;;;;;3.77;3.33;;;;;;;6.12;75.84;100180.41;2863879;81;22475;-62
2020/12/25 11:55:39;;;;;;;5.92;4.30;;;;;;;6.13;77.75;100188.70;2813333;84;21582;-63
2020/12/25 11:59:44;;;;;;;30.65;18.82;;;;;;;6.08;77.90;100186.36;2803422;83;21181;-62
2020/12/25 12:03:48;;;;;;;21.30;14.05;;;;;;;6.06;78.62;100183.46;2784829;85;21157;-61
2020/12/25 12:07:51;;;;;;;9.35;6.40;;;;;;;6.16;80.02;100194.28;2787775;85;21210;-62
2020/12/25 12:11:55;;;;;;;18.40;9.88;;;;;;;6.23;80.16;100190.28;2788988;85;21663;-63
2020/12/25 12:15:58;;;;;;;13.03;7.45;;;;;;;6.21;79.90;100185.11;2788404;84;21559;-64
2020/12/25 12:20:01;;;;;;;3.12;2.75;;;;;;;6.08;77.06;100177.11;2787099;85;21176;-63
2020/12/25 12:24:05;;;;;;;4.55;3.83;;;;;;;5.95;73.03;100177.52;2791249;85;21153;-64
2020/12/25 12:28:08;;;;;;;7.22;5.50;;;;;;;5.85;75.94;100190.46;2785539;85;21450;-65
2020/12/25 12:32:11;;;;;;;8.43;4.80;;;;;;;5.78;77.21;100192.64;2826455;83;21146;-64
2020/12/25 12:36:14;;;;;;;3.42;3.05;;;;;;;5.63;77.94;100200.20;2823240;83;21178;-63
2020/12/25 12:40:17;;;;;;;3.83;2.77;;;;;;;5.63;78.75;100201.06;2842502;83;21147;-62
2020/12/25 12:44:20;;;;;;;5.30;3.62;;;;;;;5.64;78.75;100209.81;2829455;83;21162;-65
2020/12/25 12:48:26;;;;;;;4.62;3.60;;;;;;;5.65;79.40;100214.14;2770952;84;21580;-64
2020/12/25 12:52:29;;;;;;;9.13;4.78;;;;;;;5.64;78.75;100205.85;2820170;83;21166;-65
2020/12/25 12:56:33;;;;;;;4.20;2.17;;;;;;;5.60;77.53;100212.27;2831987;83;21174;-64
2020/12/25 13:00:37;;;;;;;7.42;4.15;;;;;;;5.57;77.97;100211.52;2796149;83;21204;-64
2020/12/25 13:04:42;;;;;;;2.35;1.72;;;;;;;5.61;78.34;100221.88;2863234;82;21189;-63
2020/12/25 13:08:45;;;;;;;1.32;0.95;;;;;;;5.56;76.84;100227.44;2856714;82;21142;-62
2020/12/25 13:12:49;;;;;;;1.25;1.15;;;;;;;5.37;75.27;100230.37;2814333;83;21195;-64
2020/12/25 13:16:53;;;;;;;7.83;4.67;;;;;;;5.38;76.96;100235.53;2779383;84;21234;-64
2020/12/25 13:20:57;;;;;;;53.68;27.07;;;;;;;5.20;78.30;100226.10;2824306;82;21161;-63
2020/12/25 13:25:00;;;;;;;50.25;29.07;;;;;;;4.82;79.67;100251.17;2821489;82;21172;-63
2020/12/25 13:29:04;;;;;;;25.32;12.33;;;;;;;4.55;81.03;100252.68;2825167;82;21223;-62
2020/12/25 13:33:08;;;;;;;3.67;2.45;;;;;;;4.47;82.17;100256.69;2824070;82;21112;-63
2020/12/25 13:37:11;;;;;;;17.55;8.23;;;;;;;4.39;83.28;100245.27;2826771;82;21622;-63
2020/12/25 13:41:17;;;;;;;68.25;37.63;;;;;;;4.35;83.43;100255.59;2811778;84;21629;-61
2020/12/25 13:45:20;;;;;;;10.05;7.85;;;;;;;4.33;83.02;100260.97;2827354;82;21176;-62
2020/12/25 13:49:23;;;;;;;17.07;7.72;;;;;;;4.33;81.67;100262.73;2827800;82;21156;-63
2020/12/25 13:53:28;;;;;;;5.62;2.20;;;;;;;4.35;80.92;100269.63;2839875;82;21168;-61
2020/12/25 13:57:32;;;;;;;5.65;3.55;;;;;;;4.32;80.13;100265.83;2834222;82;21205;-62
2020/12/25 14:01:36;;;;;;;3.15;1.72;;;;;;;4.26;80.01;100284.16;2830431;82;21162;-61
2020/12/25 14:05:39;;;;;;;6.67;4.30;;;;;;;4.34;80.91;100278.92;2834159;82;21584;-61
2020/12/25 14:09:45;;;;;;;9.10;5.92;;;;;;;4.39;80.89;100285.64;2839011;82;21153;-63
2020/12/25 14:13:49;;;;;;;8.38;3.95;;;;;;;4.41;80.56;100287.72;2837704;82;21205;-62
2020/12/25 14:17:54;;;;;;;4.55;3.58;;;;;;;4.37;80.88;100296.73;2851853;82;21168;-63
2020/12/25 14:21:58;;;;;;;6.20;5.42;;;;;;;4.41;80.88;100296.94;2830337;82;21176;-64
2020/12/25 14:26:03;;;;;;;16.15;7.72;;;;;;;4.40;80.67;100296.55;2823609;84;21429;-63
2020/12/25 14:30:08;;;;;;;15.60;8.15;;;;;;;4.41;80.26;100299.56;2823787;82;21152;-64
2020/12/25 14:34:11;;;;;;;28.23;14.65;;;;;;;4.43;79.38;100305.59;2825578;84;21144;-63
2020/12/25 14:38:16;;;;;;;20.57;11.20;;;;;;;4.44;79.36;100306.46;2823027;84;21663;-62
2020/12/25 14:42:19;;;;;;;18.98;10.70;;;;;;;4.46;79.25;100312.94;2824157;82;21165;-62
2020/12/25 14:46:22;;;;;;;10.70;5.70;;;;;;;4.46;79.66;100308.54;2856334;82;21166;-63
2020/12/25 14:50:25;;;;;;;17.23;11.10;;;;;;;4.50;79.81;100313.14;2858343;82;21130;-63
2020/12/25 14:54:30;;;;;;;12.47;6.87;;;;;;;4.53;79.57;100307.73;2862116;83;21169;-62
2020/12/25 14:58:35;;;;;;;5.72;4.90;;;;;;;4.49;78.78;100314.95;2862132;83;21175;-61
2020/12/25 15:02:38;;;;;;;9.05;3.95;;;;;;;4.49;79.19;100315.40;2779593;84;21646;-63
2020/12/25 15:06:43;;;;;;;6.62;4.08;;;;;;;4.40;79.35;100325.53;2740812;84;21132;-62
2020/12/25 15:10:47;;;;;;;7.08;3.35;;;;;;;4.35;79.85;100324.94;2780766;85;21179;-63
2020/12/25 15:14:53;;;;;;;6.87;4.42;;;;;;;4.24;80.40;100323.34;2780763;84;21204;-62
2020/12/25 15:18:56;;;;;;;6.97;4.15;;;;;;;4.23;81.00;100337.45;2782101;84;21180;-63
2020/12/25 15:22:59;;;;;;;7.25;3.87;;;;;;;4.25;81.62;100339.53;2781407;85;21206;-65
2020/12/25 15:27:03;;;;;;;6.72;5.30;;;;;;;4.26;81.85;100344.73;2781665;85;21193;-61
2020/12/25 15:31:14;;;;;;;5.58;4.30;;;;;;;4.26;82.15;100343.86;2780650;84;21136;-63
2020/12/25 15:35:19;;;;;;;6.53;4.50;;;;;;;4.31;82.04;100346.25;2780847;84;21195;-64
2020/12/25 15:39:23;;;;;;;9.90;5.10;;;;;;;4.29;82.27;100350.27;2782571;84;21216;-63
2020/12/25 15:43:47;;;;;;;7.33;4.70;;;;;;;4.28;82.38;100354.70;2780658;84;21136;-62
2020/12/25 15:47:51;;;;;;;8.10;5.25;;;;;;;4.25;82.17;100360.59;2730369;86;21136;-64
2020/12/25 15:51:55;;;;;;;8.53;5.17;;;;;;;4.25;82.26;100360.59;2690259;88;21164;-62
2020/12/25 15:56:01;;;;;;;17.95;11.28;;;;;;;4.25;81.93;100365.86;2718341;86;21195;-62
2020/12/25 16:00:07;;;;;;;22.13;11.55;;;;;;;4.27;81.91;100382.42;2717463;87;21168;-60
2020/12/25 16:04:13;;;;;;;17.17;8.50;;;;;;;4.31;81.68;100392.34;2673805;88;21221;-67
2020/12/25 16:08:18;;;;;;;30.90;15.75;;;;;;;4.35;81.59;100397.37;2708369;87;21191;-65
2020/12/25 16:12:22;;;;;;;22.80;11.70;;;;;;;4.37;81.38;100397.27;2678061;88;21183;-64
2020/12/25 16:16:35;;;;;;;21.90;11.28;;;;;;;4.38;81.54;100402.47;2711296;86;21180;-65
2020/12/25 16:20:39;;;;;;;23.75;10.40;;;;;;;4.33;81.00;100400.55;2732902;86;21243;-64
2020/12/25 16:24:43;;;;;;;10.08;6.00;;;;;;;4.24;80.89;100407.61;2705229;86;21147;-64
2020/12/25 16:28:48;;;;;;;12.73;6.55;;;;;;;4.20;80.89;100400.34;2700229;86;21179;-64
2020/12/25 16:37:17;;;;;;;8.00;4.75;;;;;;;4.21;81.31;100410.42;2832945;83;21160;-64
2020/12/25 16:41:21;;;;;;;5.72;2.95;;;;;;;4.20;81.42;100408.72;2868371;83;21580;-64
2020/12/25 16:45:25;;;;;;;17.85;8.68;;;;;;;4.19;81.81;100419.70;2852636;83;21618;-64
2020/12/25 16:49:50;;;;;;;12.45;7.83;;;;;;;4.19;81.59;100416.23;2849688;83;21118;-66
2020/12/25 16:53:53;;;;;;;9.63;3.42;;;;;;;4.14;81.73;100413.39;2819354;82;21200;-65
2020/12/25 16:57:58;;;;;;;6.40;3.75;;;;;;;4.00;80.74;100425.94;2816513;82;21184;-64
2020/12/25 17:02:05;;;;;;;6.83;3.12;;;;;;;3.95;80.85;100421.86;2804794;82;21610;-66
2020/12/25 17:06:08;;;;;;;21.68;14.10;;;;;;;3.93;80.80;100428.96;2798837;82;21139;-64
2020/12/25 17:10:12;;;;;;;10.38;7.45;;;;;;;3.90;80.95;100440.52;2808462;82;21194;-65
2020/12/25 17:14:17;;;;;;;15.03;9.13;;;;;;;3.94;80.77;100439.42;2802376;82;21656;-65
2020/12/25 17:18:20;;;;;;;16.75;8.68;;;;;;;3.94;80.20;100439.42;2809086;82;21645;-64
2020/12/25 17:22:25;;;;;;;28.07;13.90;;;;;;;3.93;80.14;100443.44;2806645;82;21176;-64
2020/12/25 17:26:28;;;;;;;6.30;4.95;;;;;;;4.00;80.61;100445.67;2799580;83;21175;-65
2020/12/25 17:30:34;;;;;;;6.55;5.72;;;;;;;3.97;79.92;100459.48;2817597;82;21184;-64
2020/12/25 17:35:00;;;;;;;9.80;5.67;;;;;;;3.96;79.88;100465.68;2817370;82;21170;-65
2020/12/25 17:39:03;;;;;;;8.90;3.27;;;;;;;3.97;79.65;100462.11;2784692;84;21501;-63
2020/12/25 17:43:07;;;;;;;11.83;8.55;;;;;;;3.98;79.59;100473.86;2777193;84;22235;-64
2020/12/25 17:47:14;;;;;;;16.15;10.35;;;;;;;3.96;78.97;100480.16;2764144;84;21186;-65
2020/12/25 17:51:18;;;;;;;9.40;3.90;;;;;;;3.99;78.77;100481.31;2788893;84;21124;-63
2020/12/25 17:55:21;;;;;;;12.95;5.62;;;;;;;4.00;79.19;100485.64;2732154;85;21245;-62
2020/12/25 17:59:26;;;;;;;46.88;22.62;;;;;;;4.00;78.84;100496.17;2704701;87;21946;-62
2020/12/25 18:03:31;;;;;;;42.83;20.15;;;;;;;4.03;78.59;100492.52;2792194;84;21179;-62
2020/12/25 18:07:35;;;;;;;43.95;20.65;;;;;;;4.05;78.59;100503.36;2769362;84;21176;-63
2020/12/25 18:11:39;;;;;;;47.08;18.95;;;;;;;4.05;78.46;100495.47;2780522;84;21190;-62
2020/12/25 18:15:44;;;;;;;57.13;23.30;;;;;;;4.08;78.42;100491.35;2771028;85;21621;-63
2020/12/25 18:19:50;;;;;;;55.45;22.25;;;;;;;4.07;78.43;100500.18;2805968;84;21645;-63
2020/12/25 18:23:54;;;;;;;43.92;17.35;;;;;;;4.07;78.76;100498.03;2798110;84;21195;-60
2020/12/25 18:27:57;;;;;;;32.88;18.70;;;;;;;4.07;78.83;100492.77;2757284;84;21183;-64
2020/12/25 18:32:05;;;;;;;27.65;11.30;;;;;;;4.05;78.77;100506.00;2703506;87;22051;-62
2020/12/25 18:36:09;;;;;;;35.92;16.25;;;;;;;4.04;78.94;100504.77;2743523;85;21215;-61
2020/12/25 18:40:14;;;;;;;22.67;9.55;;;;;;;3.96;78.98;100507.80;2778619;85;21184;-61
2020/12/25 18:44:18;;;;;;;37.13;17.62;;;;;;;3.99;79.44;100502.37;2750698;86;21644;-64
2020/12/25 18:48:22;;;;;;;24.07;13.10;;;;;;;3.99;79.60;100506.31;2792812;84;21216;-61
2020/12/25 18:52:32;;;;;;;13.55;7.53;;;;;;;3.97;79.71;100510.33;2776100;84;21170;-62
2020/12/25 18:56:40;;;;;;;6.22;5.08;;;;;;;4.01;79.95;100512.35;2803953;84;21182;-61
2020/12/25 19:00:45;;;;;;;8.10;5.28;;;;;;;4.08;80.09;100512.41;2790894;84;21203;-62
2020/12/25 19:04:49;;;;;;;11.57;6.62;;;;;;;4.10;79.79;100519.77;2750645;85;21626;-61
2020/12/25 19:08:52;;;;;;;14.15;7.47;;;;;;;4.07;79.96;100515.98;2804592;83;21173;-62
2020/12/25 19:12:55;;;;;;;10.78;6.90;;;;;;;4.03;80.11;100519.70;2798033;83;21106;-61
2020/12/25 19:16:58;;;;;;;6.22;5.30;;;;;;;3.98;80.40;100530.45;2783567;84;21160;-63